createdAt,value
2018-12-02T00:05:11.263Z,15.30
2018-12-02T00:11:14.884Z,15.10
2018-12-02T00:17:18.358Z,15.40
2018-12-02T00:23:21.769Z,15.60
2018-12-02T00:29:25.218Z,15.70
2018-12-02T00:35:28.670Z,15.80
2018-12-02T00:41:32.104Z,15.90
2018-12-02T00:47:35.620Z,15.50
2018-12-02T00:53:39.029Z,15.60
2018-12-02T00:59:42.624Z,15.50
2018-12-02T01:05:46.051Z,15.60
2018-12-02T01:11:52.399Z,15.80
2018-12-02T01:17:55.860Z,15.70
2018-12-02T01:23:59.335Z,14.90
2018-12-02T01:30:02.793Z,15.10
2018-12-02T01:36:06.359Z,15.30
2018-12-02T01:42:09.806Z,15.50
2018-12-02T01:48:13.228Z,15.40
2018-12-02T01:54:16.670Z,15.30
2018-12-02T02:00:22.652Z,15.60
2018-12-02T02:06:26.113Z,15.10
2018-12-02T02:12:29.583Z,15.30
2018-12-02T02:18:33.111Z,15.60
2018-12-02T02:24:36.621Z,15.40
2018-12-02T02:30:40.053Z,15.60
2018-12-02T02:36:43.525Z,15.50
2018-12-02T02:42:47.061Z,15.50
2018-12-02T02:48:50.518Z,15.20
2018-12-02T02:54:53.929Z,15.20
2018-12-02T03:00:57.351Z,15.80
2018-12-02T03:07:00.828Z,15.70
2018-12-02T03:13:04.369Z,15.30
2018-12-02T03:19:07.836Z,15.60
2018-12-02T03:25:12.452Z,16.20
2018-12-02T03:31:15.996Z,15.90
2018-12-02T03:37:19.459Z,15.90
2018-12-02T03:43:22.886Z,15.90
2018-12-02T03:49:26.360Z,15.50
2018-12-02T03:55:29.826Z,15.40
2018-12-02T04:01:33.275Z,15.40
2018-12-02T04:07:36.722Z,15.50
2018-12-02T04:13:40.144Z,15.90
2018-12-02T04:19:43.594Z,15.70
2018-12-02T04:25:47.002Z,15.50
2018-12-02T04:31:51.040Z,15.40
2018-12-02T04:37:54.528Z,15.80
2018-12-02T04:43:57.970Z,15.80
2018-12-02T04:50:01.436Z,15.60
2018-12-02T04:56:04.900Z,15.50
2018-12-02T05:02:08.327Z,15.80
2018-12-02T05:08:11.744Z,15.60
2018-12-02T05:14:15.188Z,15.60
2018-12-02T05:20:21.443Z,15.40
2018-12-02T05:26:24.905Z,15.30
2018-12-02T05:32:29.024Z,15.10
2018-12-02T05:38:32.559Z,15.00
2018-12-02T05:44:36.071Z,14.80
2018-12-02T05:50:39.487Z,15.00
2018-12-02T05:56:43.005Z,14.80
2018-12-02T06:02:46.443Z,15.10
2018-12-02T06:08:50.679Z,15.20
2018-12-02T06:14:54.147Z,15.10
2018-12-02T06:20:57.559Z,15.40
2018-12-02T06:27:00.982Z,15.30
2018-12-02T06:33:04.770Z,16.10
2018-12-02T06:39:10.613Z,15.90
2018-12-02T06:45:14.431Z,16.00
2018-12-02T06:51:17.890Z,15.70
2018-12-02T06:57:24.440Z,15.80
2018-12-02T07:05:02.954Z,16.00
2018-12-02T07:11:06.382Z,15.80
2018-12-02T07:17:09.826Z,15.80
2018-12-02T07:23:15.628Z,16.00
2018-12-02T07:29:19.050Z,15.70
2018-12-02T07:35:22.495Z,15.80
2018-12-02T07:41:26.396Z,15.60
2018-12-02T07:47:29.836Z,15.60
2018-12-02T07:53:33.340Z,15.70
2018-12-02T07:59:36.767Z,15.60
2018-12-02T08:05:40.247Z,15.80
2018-12-02T08:11:43.706Z,15.60
2018-12-02T08:17:47.236Z,15.80
2018-12-02T08:23:50.694Z,15.70
2018-12-02T08:29:54.745Z,15.70
2018-12-02T08:35:58.193Z,15.80
2018-12-02T08:42:01.676Z,15.90
2018-12-02T08:48:05.342Z,16.00
2018-12-02T08:54:08.789Z,15.90
2018-12-02T09:00:16.395Z,15.90
2018-12-02T09:06:19.867Z,16.50
2018-12-02T09:12:23.341Z,16.40
2018-12-02T09:18:26.778Z,16.10
2018-12-02T09:24:30.364Z,16.10
2018-12-02T09:30:34.692Z,16.40
2018-12-02T09:36:38.154Z,16.40
2018-12-02T09:42:42.670Z,16.30
2018-12-02T09:48:46.122Z,16.20
2018-12-02T09:54:49.591Z,16.00
2018-12-02T10:00:53.476Z,16.20
2018-12-02T10:06:56.936Z,16.40
2018-12-02T10:13:09.671Z,16.20
2018-12-02T10:19:13.590Z,16.30
2018-12-02T10:25:17.774Z,16.10
2018-12-02T10:31:21.236Z,16.30
2018-12-02T10:37:24.674Z,16.40
2018-12-02T10:43:28.125Z,16.50
2018-12-02T10:49:31.562Z,16.20
2018-12-02T10:55:47.888Z,16.40
2018-12-02T11:01:55.671Z,16.50
2018-12-02T11:07:59.150Z,16.20
2018-12-02T11:14:02.612Z,16.00
2018-12-02T11:20:07.599Z,16.00
2018-12-02T11:26:11.154Z,15.90
2018-12-02T11:32:14.604Z,15.80
2018-12-02T11:38:18.093Z,16.10
2018-12-02T11:44:21.533Z,15.90
2018-12-02T11:50:25.833Z,16.40
2018-12-02T11:56:29.351Z,16.00
2018-12-02T12:02:32.823Z,16.10
2018-12-02T12:08:36.353Z,16.60
2018-12-02T12:14:39.878Z,16.80
2018-12-02T12:20:43.749Z,16.80
2018-12-02T12:26:47.305Z,17.00
2018-12-02T12:32:50.886Z,17.10
2018-12-02T12:38:54.359Z,17.20
2018-12-02T12:44:57.819Z,17.20
2018-12-02T12:51:01.308Z,16.70
2018-12-02T12:57:05.111Z,16.20
2018-12-02T13:03:08.561Z,16.00
2018-12-02T13:09:12.011Z,16.10
2018-12-02T13:15:16.651Z,16.00
2018-12-02T13:21:20.115Z,16.10
2018-12-02T13:27:23.559Z,16.10
2018-12-02T13:33:27.055Z,16.20
2018-12-02T13:39:30.591Z,16.10
2018-12-02T13:45:34.067Z,15.90
2018-12-02T13:51:37.542Z,16.10
2018-12-02T13:57:41.044Z,16.20
2018-12-02T14:03:44.496Z,15.80
2018-12-02T14:09:47.936Z,15.80
2018-12-02T14:15:59.504Z,15.80
2018-12-02T14:22:02.933Z,15.60
2018-12-02T14:28:07.313Z,15.70
2018-12-02T14:34:10.828Z,15.60
2018-12-02T14:40:14.723Z,15.60
2018-12-02T14:46:18.245Z,15.50
2018-12-02T14:52:21.648Z,15.30
2018-12-02T14:58:25.127Z,15.30
2018-12-02T15:04:28.588Z,15.10
2018-12-02T15:10:32.048Z,15.30
2018-12-02T15:16:35.526Z,15.10
2018-12-02T15:22:39.856Z,14.70
2018-12-02T15:28:43.357Z,14.60
2018-12-02T15:34:46.881Z,15.20
2018-12-02T15:40:50.373Z,15.70
2018-12-02T15:46:53.864Z,15.40
2018-12-02T15:52:57.536Z,14.90
2018-12-02T15:59:01.221Z,14.70
2018-12-02T16:05:04.881Z,14.70
2018-12-02T16:11:08.346Z,14.90
2018-12-02T16:17:11.810Z,15.00
2018-12-02T16:23:16.867Z,15.00
2018-12-02T16:29:20.324Z,14.80
2018-12-02T16:35:24.652Z,14.50
2018-12-02T16:41:28.264Z,14.60
2018-12-02T16:47:31.790Z,14.60
2018-12-02T16:53:35.230Z,14.40
2018-12-02T16:59:38.732Z,14.50
2018-12-02T17:05:42.183Z,14.90
2018-12-02T17:11:45.642Z,14.90
2018-12-02T17:17:49.154Z,14.20
2018-12-02T17:23:52.632Z,14.30
2018-12-02T17:29:56.087Z,14.20
2018-12-02T17:35:59.533Z,14.00
2018-12-02T17:42:07.512Z,14.10
2018-12-02T17:48:10.977Z,13.90
2018-12-02T17:54:14.822Z,13.90
2018-12-02T18:00:24.197Z,13.80
2018-12-02T18:06:27.663Z,13.70
2018-12-02T18:12:31.107Z,13.80
2018-12-02T18:18:34.591Z,13.60
2018-12-02T18:24:38.051Z,13.80
2018-12-02T18:30:41.603Z,13.60
2018-12-02T18:36:45.103Z,13.70
2018-12-02T18:42:48.588Z,14.00
2018-12-02T18:48:52.214Z,14.30
2018-12-02T18:54:55.731Z,14.00
2018-12-02T19:00:59.394Z,14.00
2018-12-02T19:07:02.848Z,14.30
2018-12-02T19:13:06.635Z,13.80
2018-12-02T19:19:10.233Z,13.90
2018-12-02T19:25:16.239Z,13.80
2018-12-02T19:31:19.726Z,13.80
2018-12-02T19:37:23.725Z,13.90
2018-12-02T19:43:27.210Z,14.00
2018-12-02T19:49:30.701Z,14.00
2018-12-02T19:55:34.173Z,13.80
2018-12-02T20:01:37.650Z,13.70
2018-12-02T20:07:41.194Z,13.80
2018-12-02T20:13:44.607Z,13.90
2018-12-02T20:19:53.328Z,14.00
2018-12-02T20:26:01.597Z,13.90
2018-12-02T20:32:06.810Z,14.10
2018-12-02T20:38:10.262Z,14.50
2018-12-02T20:44:13.759Z,14.30
2018-12-02T20:50:18.051Z,14.20
2018-12-02T20:56:21.608Z,14.30
2018-12-02T21:02:25.117Z,14.20
2018-12-02T21:08:28.656Z,14.30
2018-12-02T21:14:32.135Z,14.30
2018-12-02T21:20:35.585Z,14.30
2018-12-02T21:26:39.019Z,13.90
2018-12-02T21:32:42.554Z,13.90
2018-12-02T21:38:45.975Z,14.00
2018-12-02T21:44:49.419Z,14.00
2018-12-02T21:50:54.498Z,13.90
2018-12-02T21:56:57.950Z,14.20
2018-12-02T22:03:01.418Z,14.30
2018-12-02T22:09:08.101Z,14.40
2018-12-02T22:15:11.592Z,14.30
2018-12-02T22:21:15.033Z,14.50
2018-12-02T22:27:18.506Z,14.40
2018-12-02T22:33:21.996Z,16.00
2018-12-02T22:39:26.020Z,15.90
2018-12-02T22:45:29.734Z,16.00
2018-12-02T22:51:33.204Z,15.90
2018-12-02T22:57:36.911Z,15.80
2018-12-02T23:03:40.660Z,15.70
2018-12-02T23:09:44.072Z,15.70
2018-12-02T23:15:47.592Z,15.40
2018-12-02T23:21:51.043Z,15.60
2018-12-02T23:27:54.490Z,15.80
2018-12-02T23:33:57.956Z,15.50
2018-12-02T23:40:01.410Z,15.30
2018-12-02T23:46:05.021Z,15.20
2018-12-02T23:52:08.530Z,15.80
2018-12-02T23:58:11.992Z,15.60
